createdAt,value
2019-03-15T05:08:13.734Z,7.00
2019-03-15T05:10:43.684Z,7.10
2019-03-15T05:13:13.668Z,7.10
2019-03-15T05:15:43.653Z,7.10
2019-03-15T05:18:13.736Z,7.20
2019-03-15T05:20:45.021Z,7.10
2019-03-15T05:23:15.041Z,7.00
2019-03-15T05:25:45.025Z,7.10
2019-03-15T05:28:15.001Z,7.00
2019-03-15T05:30:45.011Z,6.90
2019-03-15T05:33:15.102Z,7.00
2019-03-15T05:35:45.018Z,7.10
2019-03-15T05:38:14.998Z,7.10
2019-03-15T05:40:45.366Z,7.10
2019-03-15T05:43:16.075Z,7.00
2019-03-15T05:45:46.102Z,7.10
2019-03-15T05:48:16.336Z,7.10
2019-03-15T05:50:47.051Z,7.00
2019-03-15T05:53:18.366Z,7.10
2019-03-15T05:55:48.890Z,7.10
2019-03-15T05:58:22.943Z,7.20
2019-03-15T06:00:53.665Z,7.10
2019-03-15T06:03:23.975Z,6.90
2019-03-15T06:06:00.532Z,6.70
2019-03-15T12:27:55.304Z,11.60
2019-03-15T12:30:25.246Z,11.60
2019-03-15T12:32:59.308Z,11.60
2019-03-15T12:35:30.087Z,11.50
2019-03-15T12:37:59.997Z,11.50
2019-03-15T12:40:30.081Z,11.50
2019-03-15T12:43:00.047Z,11.50
2019-03-15T12:45:30.240Z,11.40
2019-03-15T12:48:00.157Z,11.40
2019-03-15T12:50:30.135Z,11.40
2019-03-15T12:53:01.467Z,11.30
2019-03-15T12:55:31.395Z,11.30
2019-03-15T12:58:01.416Z,11.30
2019-03-15T13:00:31.337Z,11.30
2019-03-15T13:03:01.339Z,11.30
2019-03-15T13:05:31.337Z,11.40
2019-03-15T13:08:01.345Z,11.60
2019-03-15T13:10:31.751Z,11.80
2019-03-15T13:13:01.729Z,11.90
2019-03-15T13:15:35.316Z,12.10
2019-03-15T13:18:10.843Z,12.20
2019-03-15T13:20:41.011Z,12.20
2019-03-15T13:23:12.526Z,12.20
2019-03-15T18:44:34.232Z,11.20
2019-03-15T19:19:45.604Z,11.30
2019-03-15T19:22:16.038Z,11.20
2019-03-15T19:30:43.236Z,11.20
2019-03-15T20:17:36.048Z,11.20
2019-03-15T20:20:17.091Z,11.10
2019-03-15T20:41:50.911Z,11.10
2019-03-15T20:44:28.602Z,11.20
2019-03-15T20:46:55.037Z,11.20
2019-03-15T20:49:31.147Z,11.30
2019-03-15T20:52:02.305Z,11.30
2019-03-15T20:54:35.076Z,11.20
2019-03-15T20:57:06.830Z,11.10
2019-03-15T20:59:40.638Z,11.00
2019-03-15T21:02:11.751Z,11.00
2019-03-15T21:04:42.114Z,11.00
2019-03-15T21:07:12.456Z,10.90
2019-03-15T21:09:42.914Z,11.10
2019-03-15T21:12:13.940Z,11.10
2019-03-15T21:14:45.196Z,11.10
2019-03-15T21:17:15.942Z,11.10
2019-03-15T21:19:46.366Z,11.00
2019-03-15T21:22:16.970Z,11.00
2019-03-15T21:24:47.237Z,11.00
2019-03-15T21:27:17.568Z,10.90
2019-03-15T21:29:48.012Z,10.90
2019-03-15T21:32:18.561Z,10.80
2019-03-15T21:34:49.369Z,10.80
2019-03-15T21:37:19.633Z,10.80
2019-03-15T21:39:50.412Z,10.70
2019-03-15T21:42:20.347Z,10.70
2019-03-15T21:44:50.322Z,10.50
2019-03-15T21:47:20.250Z,10.50
2019-03-15T21:49:50.509Z,10.60
2019-03-15T21:52:20.539Z,10.60
2019-03-15T21:54:50.550Z,10.60
2019-03-15T21:57:20.835Z,10.70
2019-03-15T21:59:51.163Z,10.60
2019-03-15T22:02:21.123Z,10.70
2019-03-15T22:04:51.246Z,10.70
2019-03-15T22:07:21.313Z,10.80
2019-03-15T22:09:51.313Z,10.80
2019-03-15T22:12:21.321Z,10.70
2019-03-15T22:14:51.395Z,10.70
2019-03-15T22:17:21.432Z,10.70
2019-03-15T22:19:51.451Z,10.70
